RJFY(METAR)
07/27 17:00
METAR RJFY 270800Z 24007KT 200V280 9999 FEW035 29/22 Q1000 RMK
2CU035 A2954=
戻る
トップページへ戻る
IMOC Co,.Ltd.